createdAt,value
2023-05-05T00:07:30.200Z,15.7
2023-05-05T00:15:45.719Z,15.7
2023-05-05T00:24:01.237Z,15.6
2023-05-05T00:32:16.776Z,15.6
2023-05-05T00:40:32.305Z,15.5
2023-05-05T00:48:47.802Z,15.3
2023-05-05T00:57:03.333Z,15.2
2023-05-05T01:05:18.826Z,15.1
2023-05-05T01:13:34.326Z,14.9
2023-05-05T01:21:49.968Z,14.8
2023-05-05T01:30:05.334Z,14.7
2023-05-05T01:38:20.848Z,14.6
2023-05-05T01:46:36.356Z,14.6
2023-05-05T01:54:51.865Z,14.6
2023-05-05T02:03:07.372Z,14.5
2023-05-05T02:11:22.882Z,14.4
2023-05-05T02:19:38.369Z,14.2
2023-05-05T02:27:53.862Z,14.1
2023-05-05T02:36:09.346Z,14
2023-05-05T02:44:24.882Z,13.9
2023-05-05T02:52:40.291Z,13.8
2023-05-05T03:00:55.759Z,13.7
2023-05-05T03:09:11.235Z,13.6
2023-05-05T03:17:26.696Z,13.5
2023-05-05T03:25:42.169Z,13.5
2023-05-05T03:33:57.645Z,13.4
2023-05-05T03:42:13.099Z,13.3
2023-05-05T03:50:28.548Z,13.2
2023-05-05T03:58:44.008Z,13.1
2023-05-05T04:06:59.462Z,13.1
2023-05-05T04:15:14.923Z,13.1
2023-05-05T04:23:30.361Z,13.2
2023-05-05T04:31:45.788Z,13.2
2023-05-05T04:40:01.222Z,13.4
2023-05-05T04:48:16.660Z,13.6
2023-05-05T04:56:32.105Z,13.9
2023-05-05T05:04:47.578Z,14.1
2023-05-05T05:13:03.054Z,14.3
2023-05-05T05:21:18.535Z,14.5
2023-05-05T05:29:34.061Z,14.9
2023-05-05T05:37:49.502Z,15.3
2023-05-05T05:46:05.021Z,15.3
2023-05-05T05:54:20.533Z,15.7
2023-05-05T06:02:36.090Z,16.2
2023-05-05T06:10:51.608Z,16.5
2023-05-05T06:19:07.182Z,16.8
2023-05-05T06:27:22.809Z,17.7
2023-05-05T06:35:38.508Z,20
2023-05-05T06:43:54.366Z,21.8
2023-05-05T06:52:10.245Z,21.9
2023-05-05T07:00:32.095Z,22
2023-05-05T07:08:42.061Z,22.4
2023-05-05T07:16:58.102Z,23.3
2023-05-05T07:25:14.031Z,22.9
2023-05-05T07:33:29.990Z,24.5
2023-05-05T07:41:45.798Z,24.8
2023-05-05T07:50:01.845Z,24
2023-05-05T07:58:17.643Z,25.8
2023-05-05T08:06:33.605Z,26.6
2023-05-05T08:14:49.611Z,28
2023-05-05T08:23:05.671Z,29.7
2023-05-05T08:31:21.754Z,28.2
2023-05-05T08:39:37.868Z,28
2023-05-05T08:47:53.958Z,28.3
2023-05-05T08:56:10.134Z,28.8
2023-05-05T09:04:26.389Z,27.2
2023-05-05T09:12:42.712Z,27.4
2023-05-05T09:20:59.224Z,27.2
2023-05-05T09:29:15.781Z,26.8
2023-05-05T09:37:32.318Z,25.2
2023-05-05T09:45:48.877Z,24.5
2023-05-05T09:54:05.599Z,25.2
2023-05-05T10:02:22.202Z,24
2023-05-05T10:10:38.682Z,23.9
2023-05-05T10:18:55.134Z,23.9
2023-05-05T10:27:11.487Z,23.5
2023-05-05T10:35:27.903Z,23.1
2023-05-05T10:43:44.260Z,23.1
2023-05-05T10:52:00.532Z,23
2023-05-05T11:00:16.721Z,23
2023-05-05T11:08:32.832Z,23.1
2023-05-05T11:16:48.872Z,23.7
2023-05-05T11:25:04.891Z,25.2
2023-05-05T11:33:20.925Z,23.3
2023-05-05T11:41:36.847Z,22.9
2023-05-05T11:49:52.786Z,22.7
2023-05-05T11:58:08.695Z,22.6
2023-05-05T12:06:24.600Z,22.5
2023-05-05T12:14:40.468Z,22.2
2023-05-05T12:22:56.312Z,22.2
2023-05-05T12:31:12.123Z,22.1
2023-05-05T12:39:27.973Z,22.2
2023-05-05T12:47:43.832Z,22.6
2023-05-05T12:55:59.664Z,22.6
2023-05-05T13:04:15.489Z,22.3
2023-05-05T13:12:31.305Z,22.4
2023-05-05T13:20:47.111Z,22.5
2023-05-05T13:29:02.913Z,22.5
2023-05-05T13:37:18.806Z,22.5
2023-05-05T13:45:34.499Z,22.5
2023-05-05T13:53:50.308Z,22.1
2023-05-05T14:02:06.114Z,22.1
2023-05-05T14:10:21.895Z,22.6
2023-05-05T14:18:37.705Z,22.9
2023-05-05T14:26:53.471Z,22.6
2023-05-05T14:35:09.258Z,22.9
2023-05-05T14:43:25.078Z,23.2
2023-05-05T14:51:40.851Z,23.1
2023-05-05T14:59:56.655Z,23.3
2023-05-05T15:16:26.273Z,23.6
2023-05-05T15:24:44.138Z,23.5
2023-05-05T15:32:59.931Z,23.4
2023-05-05T15:41:15.725Z,23.2
2023-05-05T15:49:31.553Z,22.7
2023-05-05T15:57:47.321Z,22.7
2023-05-05T16:06:03.098Z,22.6
2023-05-05T16:14:18.887Z,22.3
2023-05-05T16:22:34.667Z,22.5
2023-05-05T16:30:56.400Z,22.5
2023-05-05T16:39:06.243Z,22.3
2023-05-05T16:47:22.048Z,21.7
2023-05-05T16:55:43.739Z,21.7
2023-05-05T17:03:53.601Z,21.9
2023-05-05T17:12:09.363Z,21.7
2023-05-05T17:20:31.073Z,21.6
2023-05-05T17:28:41.046Z,21.4
2023-05-05T17:36:56.590Z,21.4
2023-05-05T17:45:12.364Z,21.3
2023-05-05T17:53:28.048Z,21.1
2023-05-05T18:01:49.655Z,20.9
2023-05-05T18:09:59.498Z,20.8
2023-05-05T18:18:15.137Z,20.6
2023-05-05T18:26:30.839Z,20.4
2023-05-05T18:34:46.525Z,20.2
2023-05-05T18:43:02.213Z,20.1
2023-05-05T18:51:17.848Z,19.9
2023-05-05T18:59:33.490Z,19.8
2023-05-05T19:07:49.257Z,19.8
2023-05-05T19:16:04.810Z,19.7
2023-05-05T19:24:20.474Z,19.6
2023-05-05T19:32:36.222Z,19.5
2023-05-05T19:40:51.696Z,19.5
2023-05-05T19:49:07.513Z,19.2
2023-05-05T19:57:23.212Z,19
2023-05-05T20:05:38.605Z,18.7
2023-05-05T20:13:54.385Z,18.5
2023-05-05T20:22:09.812Z,18.3
2023-05-05T20:30:25.581Z,18.1
2023-05-05T20:38:41.020Z,18
2023-05-05T20:46:56.732Z,17.8
2023-05-05T20:55:12.360Z,17.6
2023-05-05T21:03:27.953Z,17.5
2023-05-05T21:11:43.559Z,17.5
2023-05-05T21:19:59.044Z,17.5
2023-05-05T21:28:14.629Z,17.5
2023-05-05T21:36:30.333Z,17.5
2023-05-05T21:44:45.717Z,17.4
2023-05-05T21:53:01.433Z,17.3
2023-05-05T22:01:16.995Z,17.5
2023-05-05T22:09:32.436Z,17.5
2023-05-05T22:17:48.023Z,17.6
2023-05-05T22:26:03.680Z,17.5
2023-05-05T22:34:19.347Z,17.4
2023-05-05T22:42:34.752Z,17.3
2023-05-05T22:50:50.489Z,17.3
2023-05-05T22:59:06.109Z,17.1
2023-05-05T23:07:21.601Z,16.9
2023-05-05T23:15:37.263Z,16.8
2023-05-05T23:23:52.621Z,16.8
2023-05-05T23:32:08.174Z,16.6
2023-05-05T23:40:23.739Z,16.5
2023-05-05T23:48:39.296Z,16.5
2023-05-05T23:56:54.836Z,16.3
